createdAt,value
2018-03-25T00:00:23.908Z,-2.80
2018-03-25T00:02:51.448Z,-2.80
2018-03-25T00:05:19.013Z,-2.80
2018-03-25T00:07:46.569Z,-2.80
2018-03-25T00:10:14.117Z,-2.80
2018-03-25T00:12:42.440Z,-2.80
2018-03-25T00:15:09.980Z,-2.80
2018-03-25T00:17:37.538Z,-2.80
2018-03-25T00:20:05.078Z,-2.90
2018-03-25T00:22:32.642Z,-2.90
2018-03-25T00:25:00.578Z,-2.90
2018-03-25T00:27:29.713Z,-2.90
2018-03-25T00:29:57.283Z,-2.90
2018-03-25T00:32:24.833Z,-2.90
2018-03-25T00:34:52.366Z,-2.90
2018-03-25T00:37:20.728Z,-2.90
2018-03-25T00:39:49.024Z,-3.00
2018-03-25T00:42:17.341Z,-3.00
2018-03-25T00:44:44.905Z,-3.00
2018-03-25T00:47:12.454Z,-3.00
2018-03-25T00:49:39.992Z,-2.90
2018-03-25T00:52:07.543Z,-3.00
2018-03-25T00:54:35.077Z,-3.00
2018-03-25T00:57:02.628Z,-3.00
2018-03-25T00:59:30.164Z,-3.00
2018-03-25T01:01:57.700Z,-3.00
2018-03-25T01:04:25.270Z,-3.00
2018-03-25T01:06:52.819Z,-3.10
2018-03-25T01:09:20.366Z,-3.10
2018-03-25T01:11:48.665Z,-3.10
2018-03-25T01:14:16.213Z,-3.10
2018-03-25T01:16:43.745Z,-3.10
2018-03-25T01:19:11.296Z,-3.10
2018-03-25T01:21:38.836Z,-3.10
2018-03-25T01:24:07.152Z,-3.20
2018-03-25T01:26:34.686Z,-3.20
2018-03-25T01:29:03.002Z,-3.20
2018-03-25T01:31:30.549Z,-3.20
2018-03-25T01:33:58.116Z,-3.30
2018-03-25T01:36:25.643Z,-3.20
2018-03-25T01:38:53.191Z,-3.30
2018-03-25T01:41:21.500Z,-3.30
2018-03-25T01:43:49.050Z,-3.30
2018-03-25T01:46:16.582Z,-3.30
2018-03-25T01:48:44.909Z,-3.30
2018-03-25T01:51:12.449Z,-3.40
2018-03-25T01:53:40.006Z,-3.40
2018-03-25T01:56:07.536Z,-3.40
2018-03-25T01:58:35.093Z,-3.40
2018-03-25T02:01:03.398Z,-3.40
2018-03-25T02:03:30.937Z,-3.40
2018-03-25T02:05:58.489Z,-3.40
2018-03-25T02:08:26.808Z,-3.40
2018-03-25T02:10:54.362Z,-3.50
2018-03-25T02:13:21.935Z,-3.50
2018-03-25T02:15:49.469Z,-3.50
2018-03-25T02:18:17.039Z,-3.50
2018-03-25T02:20:44.583Z,-3.50
2018-03-25T02:23:12.131Z,-3.50
2018-03-25T02:25:39.651Z,-3.50
2018-03-25T02:28:07.195Z,-3.60
2018-03-25T02:30:34.746Z,-3.60
2018-03-25T02:33:02.290Z,-3.60
2018-03-25T02:35:30.075Z,-3.60
2018-03-25T02:37:57.640Z,-3.70
2018-03-25T02:40:25.177Z,-3.70
2018-03-25T02:42:52.744Z,-3.70
2018-03-25T02:45:20.275Z,-3.70
2018-03-25T02:47:47.835Z,-3.70
2018-03-25T02:50:15.386Z,-3.80
2018-03-25T02:52:42.947Z,-3.80
2018-03-25T02:55:10.482Z,-3.90
2018-03-25T02:57:38.824Z,-3.80
2018-03-25T03:00:06.360Z,-3.90
2018-03-25T03:02:33.925Z,-3.80
2018-03-25T03:05:01.481Z,-3.80
2018-03-25T03:07:29.009Z,-3.80
2018-03-25T03:09:56.588Z,-3.80
2018-03-25T03:12:24.138Z,-3.80
2018-03-25T03:14:51.684Z,-3.80
2018-03-25T03:17:19.228Z,-3.80
2018-03-25T03:19:47.543Z,-3.80
2018-03-25T03:22:15.078Z,-3.80
2018-03-25T03:24:42.625Z,-3.80
2018-03-25T03:27:10.913Z,-3.80
2018-03-25T03:29:38.488Z,-3.80
2018-03-25T03:32:06.776Z,-3.80
2018-03-25T03:34:34.344Z,-3.90
2018-03-25T03:37:01.877Z,-3.90
2018-03-25T03:39:29.424Z,-3.90
2018-03-25T03:41:56.956Z,-4.00
2018-03-25T03:44:25.274Z,-4.00
2018-03-25T03:46:52.810Z,-4.00
2018-03-25T03:49:20.356Z,-4.10
2018-03-25T03:51:47.886Z,-4.10
2018-03-25T03:54:15.444Z,-4.10
2018-03-25T03:56:42.988Z,-4.10
2018-03-25T03:59:10.543Z,-4.10
2018-03-25T04:01:38.073Z,-4.10
2018-03-25T04:04:05.626Z,-4.10
2018-03-25T04:06:33.178Z,-4.10
2018-03-25T04:09:00.769Z,-4.10
2018-03-25T04:11:28.276Z,-4.20
2018-03-25T04:13:56.621Z,-4.20
2018-03-25T04:16:24.141Z,-4.20
2018-03-25T04:18:51.683Z,-4.20
2018-03-25T04:21:19.969Z,-4.10
2018-03-25T04:23:47.559Z,-4.10
2018-03-25T04:26:15.093Z,-4.10
2018-03-25T04:28:42.636Z,-4.20
2018-03-25T04:31:10.183Z,-4.10
2018-03-25T04:33:38.494Z,-4.10
2018-03-25T04:36:06.050Z,-4.10
2018-03-25T04:38:33.593Z,-4.10
2018-03-25T04:41:01.138Z,-4.10
2018-03-25T04:43:29.469Z,-4.10
2018-03-25T04:45:57.006Z,-4.10
2018-03-25T04:48:24.552Z,-4.10
2018-03-25T04:50:52.084Z,-4.20
2018-03-25T04:53:20.405Z,-4.30
2018-03-25T04:55:47.934Z,-4.20
2018-03-25T04:58:15.492Z,-4.30
2018-03-25T05:00:43.056Z,-4.30
2018-03-25T05:03:12.567Z,-4.30
2018-03-25T05:05:40.117Z,-4.30
2018-03-25T05:08:07.646Z,-4.20
2018-03-25T05:10:35.208Z,-4.20
2018-03-25T05:13:03.510Z,-4.20
2018-03-25T05:15:31.087Z,-4.20
2018-03-25T05:17:58.629Z,-4.20
2018-03-25T05:20:26.196Z,-4.20
2018-03-25T05:22:53.737Z,-4.20
2018-03-25T05:25:22.045Z,-4.20
2018-03-25T05:27:49.591Z,-4.20
2018-03-25T05:30:17.185Z,-4.10
2018-03-25T05:32:44.786Z,-4.00
2018-03-25T05:35:13.172Z,-4.00
2018-03-25T05:37:40.729Z,-4.00
2018-03-25T05:40:08.333Z,-3.90
2018-03-25T05:42:35.876Z,-3.90
2018-03-25T05:45:03.449Z,-3.80
2018-03-25T05:47:31.007Z,-3.70
2018-03-25T05:49:58.553Z,-3.60
2018-03-25T05:52:26.101Z,-3.50
2018-03-25T05:54:53.654Z,-3.50
2018-03-25T05:57:21.200Z,-3.40
2018-03-25T05:59:48.758Z,-3.30
2018-03-25T06:02:17.053Z,-3.10
2018-03-25T06:04:44.610Z,-3.10
2018-03-25T06:07:12.140Z,-3.00
2018-03-25T06:09:40.459Z,-2.80
2018-03-25T06:12:07.994Z,-2.90
2018-03-25T06:14:35.544Z,-2.70
2018-03-25T06:17:03.086Z,-2.60
2018-03-25T06:19:31.404Z,-1.70
2018-03-25T06:21:58.964Z,-1.70
2018-03-25T06:24:26.535Z,-1.10
2018-03-25T06:26:54.089Z,-0.80
2018-03-25T06:29:21.661Z,-0.70
2018-03-25T06:31:49.212Z,-0.60
2018-03-25T06:34:16.781Z,-0.40
2018-03-25T06:36:44.325Z,-0.10
2018-03-25T06:39:11.901Z,0.70
2018-03-25T06:41:39.462Z,1.70
2018-03-25T06:44:07.030Z,2.60
2018-03-25T06:46:34.580Z,3.30
2018-03-25T06:49:02.154Z,4.20
2018-03-25T06:51:29.707Z,4.90
2018-03-25T06:53:57.317Z,5.70
2018-03-25T06:56:24.871Z,6.40
2018-03-25T06:58:52.414Z,6.80
2018-03-25T07:01:20.762Z,7.50
2018-03-25T07:03:48.314Z,7.40
2018-03-25T07:06:15.920Z,7.80
2018-03-25T07:08:43.516Z,7.80
2018-03-25T07:11:11.069Z,8.20
2018-03-25T07:13:38.613Z,8.80
2018-03-25T07:16:06.186Z,9.50
2018-03-25T07:18:34.514Z,10.00
2018-03-25T07:21:02.856Z,10.50
2018-03-25T07:23:30.399Z,10.50
2018-03-25T07:25:57.965Z,10.30
2018-03-25T07:28:25.539Z,9.40
2018-03-25T07:30:53.104Z,9.00
2018-03-25T07:33:24.381Z,8.90
2018-03-25T07:35:52.219Z,8.50
2018-03-25T07:38:19.801Z,7.50
2018-03-25T07:40:47.361Z,7.10
2018-03-25T07:43:15.659Z,7.10
2018-03-25T07:45:43.205Z,7.10
2018-03-25T07:48:10.741Z,6.40
2018-03-25T07:50:39.062Z,6.00
2018-03-25T07:53:06.590Z,5.90
2018-03-25T07:55:34.897Z,5.90
2018-03-25T07:58:02.429Z,5.80
2018-03-25T08:00:30.741Z,8.00
2018-03-25T08:02:58.309Z,7.90
2018-03-25T08:05:25.858Z,8.90
2018-03-25T08:07:53.387Z,9.50
2018-03-25T08:10:20.948Z,10.60
2018-03-25T08:12:48.468Z,11.90
2018-03-25T08:15:16.798Z,12.70
2018-03-25T08:17:44.321Z,12.70
2018-03-25T08:20:12.632Z,13.30
2018-03-25T08:22:40.201Z,13.30
2018-03-25T08:25:07.769Z,14.40
2018-03-25T08:27:35.292Z,15.00
2018-03-25T08:30:02.890Z,15.30
2018-03-25T08:32:30.420Z,16.50
2018-03-25T08:34:57.941Z,16.70
2018-03-25T08:37:25.489Z,17.40
2018-03-25T08:39:53.007Z,18.40
2018-03-25T08:42:20.556Z,18.30
2018-03-25T08:44:48.087Z,18.20
2018-03-25T08:47:16.401Z,18.50
2018-03-25T08:49:43.927Z,18.50
2018-03-25T08:52:11.506Z,18.30
2018-03-25T08:54:39.031Z,18.90
2018-03-25T08:57:07.359Z,16.60
2018-03-25T08:59:35.710Z,16.40
2018-03-25T09:02:03.265Z,16.30
2018-03-25T09:04:30.797Z,16.40
2018-03-25T09:06:59.113Z,17.20
2018-03-25T09:09:26.683Z,17.20
2018-03-25T09:11:54.243Z,17.30
2018-03-25T09:14:21.781Z,15.30
2018-03-25T09:16:49.341Z,13.90
2018-03-25T09:19:16.871Z,15.70
2018-03-25T09:21:45.305Z,17.60
2018-03-25T09:24:12.852Z,17.60
2018-03-25T09:26:40.415Z,18.40
2018-03-25T09:29:07.969Z,16.70
2018-03-25T09:31:35.518Z,16.20
2018-03-25T09:34:03.058Z,13.90
2018-03-25T09:36:31.434Z,14.40
2018-03-25T09:38:59.046Z,15.80
2018-03-25T09:41:26.608Z,14.20
2018-03-25T09:43:54.150Z,16.10
2018-03-25T09:46:21.716Z,16.60
2018-03-25T09:48:49.254Z,17.40
2018-03-25T09:51:17.637Z,16.50
2018-03-25T09:53:45.169Z,16.40
2018-03-25T09:56:12.741Z,17.70
2018-03-25T09:58:40.319Z,19.60
2018-03-25T10:01:13.425Z,21.00
2018-03-25T10:03:40.961Z,21.80
2018-03-25T10:06:08.513Z,22.00
2018-03-25T10:08:36.053Z,21.30
2018-03-25T10:11:03.617Z,22.10
2018-03-25T10:13:31.169Z,20.10
2018-03-25T10:15:58.725Z,19.20
2018-03-25T10:18:26.267Z,17.30
2018-03-25T10:20:54.569Z,17.40
2018-03-25T10:23:22.116Z,17.40
2018-03-25T10:25:50.490Z,19.10
2018-03-25T10:28:18.047Z,20.00
2018-03-25T10:30:46.349Z,16.90
2018-03-25T10:33:13.894Z,16.80
2018-03-25T10:35:41.421Z,16.80
2018-03-25T10:38:08.973Z,17.10
2018-03-25T10:40:36.506Z,17.00
2018-03-25T10:43:04.062Z,16.70
2018-03-25T10:45:31.588Z,18.20
2018-03-25T10:47:59.145Z,20.10
2018-03-25T10:50:26.676Z,21.80
2018-03-25T10:52:54.999Z,23.30
2018-03-25T10:55:23.283Z,22.10
2018-03-25T10:57:50.824Z,22.10
2018-03-25T11:00:19.116Z,19.90
2018-03-25T11:02:46.656Z,19.90
2018-03-25T11:05:14.185Z,21.00
2018-03-25T11:07:42.497Z,21.10
2018-03-25T11:10:10.035Z,21.00
2018-03-25T11:12:37.596Z,21.20
2018-03-25T11:15:05.133Z,19.90
2018-03-25T11:17:33.448Z,19.60
2018-03-25T11:20:00.994Z,19.50
2018-03-25T11:22:28.544Z,21.90
2018-03-25T11:24:56.072Z,24.20
2018-03-25T11:27:23.620Z,23.80
2018-03-25T11:29:51.144Z,24.40
2018-03-25T11:32:18.689Z,25.60
2018-03-25T11:34:46.219Z,26.20
2018-03-25T11:37:14.543Z,20.90
2018-03-25T11:39:42.082Z,20.80
2018-03-25T11:42:09.632Z,21.10
2018-03-25T11:44:37.163Z,20.40
2018-03-25T11:47:04.699Z,20.60
2018-03-25T11:49:32.230Z,23.00
2018-03-25T11:51:59.768Z,24.00
2018-03-25T11:54:27.296Z,25.50
2018-03-25T11:56:54.850Z,22.90
2018-03-25T11:59:22.381Z,23.00
2018-03-25T12:01:50.801Z,23.90
2018-03-25T12:04:19.101Z,24.40
2018-03-25T12:06:46.657Z,24.40
2018-03-25T12:09:14.184Z,23.30
2018-03-25T12:11:42.497Z,21.10
2018-03-25T12:14:10.050Z,21.10
2018-03-25T12:16:37.597Z,19.20
2018-03-25T12:19:05.138Z,20.00
2018-03-25T12:21:33.533Z,22.70
2018-03-25T12:24:01.075Z,22.70
2018-03-25T12:26:29.425Z,19.40
2018-03-25T12:28:56.972Z,19.40
2018-03-25T12:31:24.492Z,20.40
2018-03-25T12:33:52.038Z,20.30
2018-03-25T12:36:20.341Z,21.40
2018-03-25T12:38:47.893Z,21.40
2018-03-25T12:41:15.425Z,23.70
2018-03-25T12:43:43.738Z,23.80
2018-03-25T12:46:11.285Z,23.80
2018-03-25T12:48:38.827Z,26.00
2018-03-25T12:51:07.122Z,23.00
2018-03-25T12:53:34.677Z,23.00
2018-03-25T12:56:02.209Z,20.60
2018-03-25T12:58:30.531Z,19.70
2018-03-25T13:00:58.065Z,19.70
2018-03-25T13:03:25.614Z,20.90
2018-03-25T13:05:53.145Z,20.30
2018-03-25T13:08:20.705Z,21.50
2018-03-25T13:10:48.248Z,21.40
2018-03-25T13:13:15.804Z,20.20
2018-03-25T13:15:43.373Z,18.40
2018-03-25T13:18:10.919Z,17.50
2018-03-25T13:20:38.452Z,17.80
2018-03-25T13:23:06.042Z,18.90
2018-03-25T13:25:33.585Z,19.90
2018-03-25T13:28:01.139Z,20.70
2018-03-25T13:30:28.673Z,21.10
2018-03-25T13:32:56.226Z,20.80
2018-03-25T13:35:23.752Z,21.20
2018-03-25T13:37:51.319Z,21.60
2018-03-25T13:40:19.618Z,19.90
2018-03-25T13:42:47.173Z,19.90
2018-03-25T13:45:14.736Z,18.50
2018-03-25T13:47:42.289Z,19.30
2018-03-25T13:50:09.820Z,20.80
2018-03-25T13:52:38.163Z,20.60
2018-03-25T13:55:05.700Z,20.60
2018-03-25T13:57:33.249Z,20.80
2018-03-25T14:00:00.785Z,21.50
2018-03-25T14:02:29.102Z,21.70
2018-03-25T14:04:56.637Z,21.70
2018-03-25T14:07:24.184Z,20.30
2018-03-25T14:09:52.494Z,19.60
2018-03-25T14:12:20.055Z,19.60
2018-03-25T14:14:47.584Z,18.40
2018-03-25T14:17:15.142Z,18.80
2018-03-25T14:19:42.672Z,20.00
2018-03-25T14:22:10.196Z,20.70
2018-03-25T14:24:37.745Z,21.10
2018-03-25T14:27:05.282Z,20.70
2018-03-25T14:29:33.052Z,18.80
2018-03-25T14:32:00.577Z,19.50
2018-03-25T14:34:28.129Z,18.90
2018-03-25T14:36:55.666Z,18.10
2018-03-25T14:39:23.230Z,17.80
2018-03-25T14:41:50.785Z,16.80
2018-03-25T14:44:18.333Z,15.90
2018-03-25T14:46:45.866Z,15.20
2018-03-25T14:49:13.417Z,14.40
2018-03-25T14:51:40.947Z,13.70
2018-03-25T14:54:09.274Z,13.60
2018-03-25T14:56:36.818Z,13.60
2018-03-25T14:59:04.359Z,13.60
2018-03-25T15:01:31.910Z,12.90
2018-03-25T15:04:00.250Z,13.10
2018-03-25T15:06:27.777Z,13.10
2018-03-25T15:08:55.339Z,13.30
2018-03-25T15:11:22.868Z,13.40
2018-03-25T15:13:50.414Z,13.10
2018-03-25T15:16:18.716Z,12.90
2018-03-25T15:18:46.281Z,12.90
2018-03-25T15:21:13.809Z,12.70
2018-03-25T15:23:42.134Z,12.90
2018-03-25T15:26:09.674Z,12.90
2018-03-25T15:28:37.448Z,12.90
2018-03-25T15:31:04.982Z,12.90
2018-03-25T15:33:32.551Z,12.70
2018-03-25T15:36:00.077Z,12.60
2018-03-25T15:38:28.394Z,12.50
2018-03-25T15:40:55.925Z,12.50
2018-03-25T15:43:23.478Z,12.30
2018-03-25T15:45:51.774Z,12.10
2018-03-25T15:48:19.315Z,12.00
2018-03-25T15:50:47.612Z,12.10
2018-03-25T15:53:21.512Z,12.10
2018-03-25T15:55:49.032Z,12.00
2018-03-25T15:58:16.597Z,12.00
2018-03-25T16:00:44.127Z,11.90
2018-03-25T16:03:11.680Z,11.80
2018-03-25T16:05:39.206Z,11.50
2018-03-25T16:08:06.768Z,11.50
2018-03-25T16:10:34.296Z,11.40
2018-03-25T16:13:02.609Z,11.30
2018-03-25T16:15:30.139Z,11.20
2018-03-25T16:17:57.698Z,11.00
2018-03-25T16:20:25.994Z,10.90
2018-03-25T16:22:53.561Z,10.90
2018-03-25T16:25:21.088Z,10.80
2018-03-25T16:27:49.388Z,10.70
2018-03-25T16:30:16.947Z,10.70
2018-03-25T16:32:44.478Z,10.70
2018-03-25T16:35:12.790Z,10.60
2018-03-25T16:37:40.331Z,10.60
2018-03-25T16:40:07.887Z,10.50
2018-03-25T16:42:35.649Z,10.40
2018-03-25T16:45:03.207Z,10.40
2018-03-25T16:47:30.736Z,10.20
2018-03-25T16:49:58.302Z,10.10
2018-03-25T16:52:26.608Z,9.90
2018-03-25T16:54:54.157Z,9.90
2018-03-25T16:57:21.695Z,9.70
2018-03-25T16:59:50.021Z,9.40
2018-03-25T17:02:17.564Z,9.40
2018-03-25T17:04:45.122Z,9.30
2018-03-25T17:07:12.669Z,9.10
2018-03-25T17:09:40.221Z,9.00
2018-03-25T17:12:07.761Z,8.90
2018-03-25T17:14:36.086Z,8.60
2018-03-25T17:17:23.628Z,8.60
2018-03-25T17:19:51.185Z,8.50
2018-03-25T17:22:18.718Z,8.20
2018-03-25T17:24:46.305Z,8.00
2018-03-25T17:27:13.889Z,7.90
2018-03-25T17:29:41.445Z,7.70
2018-03-25T17:32:08.978Z,7.50
2018-03-25T17:34:36.569Z,7.40
2018-03-25T17:37:04.120Z,7.20
2018-03-25T17:39:31.657Z,7.10
2018-03-25T17:41:59.190Z,7.00
2018-03-25T17:44:26.726Z,6.80
2018-03-25T17:46:55.025Z,6.50
2018-03-25T17:49:22.602Z,6.50
2018-03-25T17:51:50.169Z,6.40
2018-03-25T17:54:17.721Z,6.30
2018-03-25T17:56:45.252Z,6.20
2018-03-25T17:59:12.825Z,6.10
2018-03-25T18:01:40.344Z,6.00
2018-03-25T18:04:08.649Z,5.80
2018-03-25T18:06:36.208Z,5.80
2018-03-25T18:09:03.761Z,5.70
2018-03-25T18:11:31.296Z,5.60
2018-03-25T18:13:59.618Z,5.50
2018-03-25T18:16:27.145Z,5.50
2018-03-25T18:18:55.441Z,5.40
2018-03-25T18:21:22.961Z,5.40
2018-03-25T18:23:51.316Z,5.20
2018-03-25T18:26:18.873Z,5.20
2018-03-25T18:28:46.453Z,5.10
2018-03-25T18:31:14.782Z,5.00
2018-03-25T18:33:42.374Z,4.90
2018-03-25T18:36:09.921Z,4.90
2018-03-25T18:38:37.441Z,4.70
2018-03-25T18:41:04.991Z,4.60
2018-03-25T18:43:32.550Z,4.50
2018-03-25T18:46:00.101Z,4.40
2018-03-25T18:48:27.624Z,4.30
2018-03-25T18:50:55.202Z,4.20
2018-03-25T18:53:23.510Z,4.00
2018-03-25T18:55:51.045Z,3.90
2018-03-25T18:58:19.341Z,3.90
2018-03-25T19:00:46.921Z,3.80
2018-03-25T19:03:16.388Z,3.80
2018-03-25T19:05:44.690Z,3.60
2018-03-25T19:08:12.220Z,3.60
2018-03-25T19:10:40.525Z,3.40
2018-03-25T19:13:08.809Z,3.30
2018-03-25T19:15:36.353Z,3.30
2018-03-25T19:18:03.873Z,3.20
2018-03-25T19:20:31.436Z,3.10
2018-03-25T19:22:59.737Z,2.90
2018-03-25T19:25:27.282Z,2.90
2018-03-25T19:27:54.834Z,2.90
2018-03-25T19:30:23.140Z,2.70
2018-03-25T19:33:04.948Z,2.70
2018-03-25T19:35:32.491Z,2.60
2018-03-25T19:38:00.022Z,2.50
2018-03-25T19:40:27.569Z,2.40
2018-03-25T19:42:55.851Z,2.20
2018-03-25T19:45:24.171Z,2.20
2018-03-25T19:47:51.711Z,2.10
2018-03-25T19:50:19.264Z,2.10
2018-03-25T19:52:46.815Z,2.00
2018-03-25T19:55:14.356Z,2.00
2018-03-25T19:57:42.718Z,1.80
2018-03-25T20:00:10.230Z,1.70
2018-03-25T20:02:37.801Z,1.70
2018-03-25T20:05:05.382Z,1.70
2018-03-25T20:07:32.966Z,1.60
2018-03-25T20:10:01.323Z,1.50
2018-03-25T20:12:28.864Z,1.50
2018-03-25T20:14:56.468Z,1.50
2018-03-25T20:17:24.788Z,1.30
2018-03-25T20:19:52.348Z,1.30
2018-03-25T20:22:19.905Z,1.30
2018-03-25T20:24:47.534Z,1.20
2018-03-25T20:27:15.083Z,1.10
2018-03-25T20:29:42.661Z,1.10
2018-03-25T20:32:10.208Z,1.10
2018-03-25T20:34:37.781Z,1.10
2018-03-25T20:37:05.320Z,1.10
2018-03-25T20:39:32.900Z,1.00
2018-03-25T20:42:00.478Z,1.00
2018-03-25T20:44:28.077Z,1.00
2018-03-25T20:46:55.613Z,0.90
2018-03-25T20:49:24.020Z,0.80
2018-03-25T20:51:52.321Z,0.80
2018-03-25T20:54:19.868Z,0.80
2018-03-25T20:56:48.224Z,0.60
2018-03-25T20:59:15.825Z,0.60
2018-03-25T21:01:43.401Z,0.60
2018-03-25T21:04:10.939Z,0.60
2018-03-25T21:06:38.522Z,0.60
2018-03-25T21:09:06.048Z,0.60
2018-03-25T21:11:34.389Z,0.60
2018-03-25T21:14:01.930Z,0.60
2018-03-25T21:16:29.518Z,0.60
2018-03-25T21:18:57.812Z,0.50
2018-03-25T21:21:25.456Z,0.50
2018-03-25T21:23:53.004Z,0.40
2018-03-25T21:26:21.338Z,0.30
2018-03-25T21:28:48.886Z,0.30
2018-03-25T21:31:16.460Z,0.20
2018-03-25T21:33:44.015Z,0.20
2018-03-25T21:36:11.611Z,0.10
2018-03-25T21:38:39.193Z,0.10
2018-03-25T21:41:06.817Z,0.00
2018-03-25T21:43:34.347Z,0.00
2018-03-25T21:46:01.923Z,0.00
2018-03-25T21:48:29.479Z,-0.10
2018-03-25T21:50:57.058Z,-0.10
2018-03-25T21:53:24.625Z,-0.10
2018-03-25T21:55:52.205Z,-0.10
2018-03-25T21:58:20.611Z,-0.20
2018-03-25T22:00:48.189Z,-0.20
2018-03-25T22:03:15.769Z,-0.20
2018-03-25T22:05:43.361Z,-0.30
2018-03-25T22:08:10.906Z,-0.40
2018-03-25T22:10:38.471Z,-0.40
2018-03-25T22:13:06.009Z,-0.50
2018-03-25T22:15:33.637Z,-0.60
2018-03-25T22:18:01.222Z,-0.60
2018-03-25T22:20:28.897Z,-0.70
2018-03-25T22:22:56.489Z,-0.80
2018-03-25T22:25:24.886Z,-0.90
2018-03-25T22:27:52.448Z,-0.90
2018-03-25T22:30:20.036Z,-0.90
2018-03-25T22:32:47.641Z,-0.90
2018-03-25T22:35:16.002Z,-1.00
2018-03-25T22:37:43.539Z,-1.00
2018-03-25T22:40:11.140Z,-1.00
2018-03-25T22:42:39.467Z,-1.00
2018-03-25T22:45:07.023Z,-1.00
2018-03-25T22:47:34.710Z,-1.00
2018-03-25T22:50:02.270Z,-1.00
2018-03-25T22:52:29.896Z,-1.10
2018-03-25T22:54:57.455Z,-1.00
2018-03-25T22:57:25.013Z,-1.10
2018-03-25T22:59:52.577Z,-1.10
2018-03-25T23:02:20.145Z,-1.10
2018-03-25T23:04:47.717Z,-1.10
2018-03-25T23:07:15.301Z,-1.10
2018-03-25T23:09:43.625Z,-1.20
2018-03-25T23:12:11.246Z,-1.20
2018-03-25T23:14:39.573Z,-1.30
2018-03-25T23:17:07.165Z,-1.30
2018-03-25T23:19:35.485Z,-1.30
2018-03-25T23:22:03.878Z,-1.40
2018-03-25T23:24:31.429Z,-1.40
2018-03-25T23:26:59.014Z,-1.40
2018-03-25T23:29:26.594Z,-1.50
2018-03-25T23:31:54.239Z,-1.50
2018-03-25T23:34:21.793Z,-1.50
2018-03-25T23:36:49.368Z,-1.60
2018-03-25T23:39:16.945Z,-1.60
2018-03-25T23:41:44.526Z,-1.70
2018-03-25T23:44:12.130Z,-1.70
2018-03-25T23:46:39.705Z,-1.80
2018-03-25T23:49:07.286Z,-1.80
2018-03-25T23:51:35.647Z,-1.90
2018-03-25T23:54:03.229Z,-1.90
2018-03-25T23:56:30.865Z,-1.80
2018-03-25T23:58:58.444Z,-1.80
